Turin/Caselle Airport

Airport
ICAO code: 
LIMF
IATA Code: 
TRN
Summary
ICAO Region: 
EUR
Territory: 
Location: 
Caselle Torinese, Piedmont
Serving: 
Turin
Elevation: 
989 ft
Coordinates: 
Aerial View: 
45° 11' 50.886" N, 7° 38' 57.751" E
Metar
Observation
LIMF 201020Z 22003KT 9000 4000E NSC 05/M01 Q1021
Station
Torino / Caselle
Date/Time
2022-01-20 10:20:00
Wind direction
220°
Wind speed
03 kts
Lowest cloud amount
nil significant cloud
Temperature
5°C
Dew point
-1°C
Humidity
65%
QNH
1021 hPa
Weather condition
n/a

International airport serving city of Turin.

Climatology

Humid “subtropical” climate (Köppen climate classification Cfa) - characterized by hot, humid summers and cool winters. Significant amounts of precipitation occur in all seasons in most areas. Winter rainfall (and sometimes snowfall) is associated with large storms that the westerlies steer from west to east. Most summer rainfall occurs during thunderstorms.

Runways

Designator Length Width Surface Rops
18/36 3300 60 ASP Yes/Yes
Airport map: 
Aerial View: 

SKYbrary Partners:

Safety knowledge contributed by: